createdAt,value
2019-02-23T00:00:48.421Z,98778.53
2019-02-23T00:03:21.036Z,98769.49
2019-02-23T00:05:53.972Z,98774.81
2019-02-23T00:08:26.563Z,98775.14
2019-02-23T00:10:58.245Z,98779.34
2019-02-23T00:13:32.235Z,98768.17
2019-02-23T00:16:03.277Z,98765.41
2019-02-23T00:18:42.641Z,98771.68
2019-02-23T00:21:18.883Z,98770.33
2019-02-23T00:23:50.474Z,98763.73
2019-02-23T00:26:32.695Z,98766.95
2019-02-23T00:29:03.465Z,98773.48
2019-02-23T00:31:35.387Z,98767.50
2019-02-23T00:34:07.089Z,98774.74
2019-02-23T00:36:38.532Z,98782.30
2019-02-23T00:39:09.896Z,98782.80
2019-02-23T00:41:41.937Z,98784.74
2019-02-23T00:44:15.761Z,98791.53
2019-02-23T00:46:46.776Z,98792.47
2019-02-23T00:49:19.934Z,98788.45
2019-02-23T00:51:52.071Z,98791.70
2019-02-23T00:54:23.704Z,98793.02
2019-02-23T00:56:55.052Z,98784.34
2019-02-23T00:59:26.112Z,98779.31
2019-02-23T01:01:57.148Z,98779.36
2019-02-23T01:04:28.576Z,98778.55
2019-02-23T01:07:00.167Z,98786.00
2019-02-23T01:09:31.851Z,98789.09
2019-02-23T01:12:03.098Z,98792.03
2019-02-23T01:14:34.304Z,98798.93
2019-02-23T01:17:15.751Z,98802.77
2019-02-23T01:19:48.111Z,98807.34
2019-02-23T01:22:30.944Z,98812.84
2019-02-23T01:25:02.608Z,98815.16
2019-02-23T01:27:50.639Z,98815.66
2019-02-23T01:30:21.962Z,98819.25
2019-02-23T01:33:24.549Z,98822.36
2019-02-23T01:36:04.101Z,98810.73
2019-02-23T01:38:35.732Z,98800.84
2019-02-23T01:41:06.942Z,98805.55
2019-02-23T01:43:38.783Z,98805.53
2019-02-23T01:46:12.276Z,98807.13
2019-02-23T01:48:44.328Z,98804.22
2019-02-23T01:55:04.201Z,98815.67
2019-02-23T01:57:35.695Z,98818.88
2019-02-23T02:01:01.486Z,98816.11
2019-02-23T03:01:59.094Z,98788.06
2019-02-23T03:04:31.135Z,98784.94
2019-02-23T03:07:02.515Z,98773.32
2019-02-23T03:09:34.494Z,98774.91
2019-02-23T03:12:05.518Z,98769.09
2019-02-23T03:14:37.153Z,98776.91
2019-02-23T03:17:07.870Z,98783.16
2019-02-23T03:20:35.891Z,98774.05
2019-02-23T03:22:56.424Z,98770.61
2019-02-23T03:25:27.482Z,98772.73
2019-02-23T03:27:58.213Z,98770.26
2019-02-23T03:30:30.238Z,98783.14
2019-02-23T03:33:01.243Z,98780.89
2019-02-23T03:39:55.893Z,98783.70
2019-02-23T03:42:27.633Z,98781.13
2019-02-23T03:44:58.976Z,98783.23
2019-02-23T03:47:30.015Z,98787.02
2019-02-23T03:50:01.391Z,98782.96
2019-02-23T03:52:32.939Z,98795.14
2019-02-23T03:55:03.719Z,98795.19
2019-02-23T03:57:34.770Z,98789.31
2019-02-23T04:00:07.689Z,98794.22
2019-02-23T04:02:38.363Z,98791.80
2019-02-23T04:05:09.741Z,98797.95
2019-02-23T04:07:40.420Z,98796.31
2019-02-23T04:10:11.871Z,98798.50
2019-02-23T04:12:43.713Z,98806.88
2019-02-23T04:15:14.324Z,98807.67
2019-02-23T04:17:46.332Z,98813.28
2019-02-23T04:20:16.697Z,98815.12
2019-02-23T04:22:48.413Z,98814.83
2019-02-23T04:25:19.374Z,98808.27
2019-02-23T04:27:50.685Z,98799.22
2019-02-23T04:30:21.742Z,98798.80
2019-02-23T04:32:53.218Z,98805.69
2019-02-23T04:35:24.689Z,98794.03
2019-02-23T04:38:32.070Z,98797.56
2019-02-23T04:41:03.213Z,98795.55
2019-02-23T04:43:35.019Z,98792.17
2019-02-23T04:46:06.016Z,98790.14
2019-02-23T04:48:37.399Z,98791.59
2019-02-23T04:51:14.236Z,98785.14
2019-02-23T04:53:41.508Z,98774.63
2019-02-23T04:56:12.879Z,98773.91
2019-02-23T04:58:43.949Z,98777.80
2019-02-23T05:01:15.652Z,98771.35
2019-02-23T05:03:47.426Z,98771.77
2019-02-23T05:06:19.149Z,98767.71
2019-02-23T05:08:50.428Z,98761.59
2019-02-23T05:14:33.464Z,98757.38
2019-02-23T05:17:05.387Z,98761.50
2019-02-23T05:19:36.552Z,98770.02
2019-02-23T05:22:07.557Z,98758.91
2019-02-23T05:24:38.918Z,98763.22
2019-02-23T05:27:10.636Z,98760.31
2019-02-23T05:29:41.911Z,98761.38
2019-02-23T05:32:13.283Z,98762.66
2019-02-23T05:34:44.702Z,98754.97
2019-02-23T05:37:16.879Z,98758.80
2019-02-23T05:40:36.317Z,98750.66
2019-02-23T05:43:08.004Z,98750.66
2019-02-23T05:45:39.388Z,98751.69
2019-02-23T05:48:11.373Z,98753.97
2019-02-23T05:50:43.180Z,98755.09
2019-02-23T05:53:14.305Z,98748.01
2019-02-23T05:55:45.802Z,98741.79
2019-02-23T05:58:17.334Z,98743.27
2019-02-23T06:01:04.374Z,98743.59
2019-02-23T06:03:35.015Z,98748.25
2019-02-23T06:06:06.335Z,98740.02
2019-02-23T06:08:37.614Z,98738.98
2019-02-23T06:11:08.724Z,98744.59
2019-02-23T06:13:40.321Z,98742.86
2019-02-23T06:16:11.311Z,98739.80
2019-02-23T06:18:42.627Z,98745.25
2019-02-23T06:21:13.619Z,98761.33
2019-02-23T06:23:44.936Z,98754.09
2019-02-23T06:26:16.287Z,98749.60
2019-02-23T06:28:51.177Z,98740.77
2019-02-23T06:31:22.176Z,98746.79
2019-02-23T06:33:54.102Z,98752.93
2019-02-23T06:36:25.085Z,98750.01
2019-02-23T06:38:56.817Z,98747.07
2019-02-23T06:41:28.453Z,98751.78
2019-02-23T06:44:00.106Z,98757.27
2019-02-23T06:46:31.580Z,98754.95
2019-02-23T06:49:03.591Z,98753.91
2019-02-23T06:51:44.893Z,98752.86
2019-02-23T06:54:16.407Z,98760.45
2019-02-23T06:56:49.645Z,98764.80
2019-02-23T06:59:21.517Z,98765.84
2019-02-23T07:01:52.536Z,98758.86
2019-02-23T07:04:23.653Z,98751.72
2019-02-23T07:06:55.478Z,98753.66
2019-02-23T07:09:27.082Z,98756.05
2019-02-23T07:11:58.576Z,98759.95
2019-02-23T07:14:38.584Z,98755.88
2019-02-23T07:17:10.116Z,98760.20
2019-02-23T07:19:41.130Z,98760.59
2019-02-23T07:22:15.852Z,98751.19
2019-02-23T07:24:46.250Z,98754.63
2019-02-23T07:27:27.277Z,98751.66
2019-02-23T07:29:59.064Z,98761.33
2019-02-23T07:32:29.948Z,98758.63
2019-02-23T07:35:02.810Z,98755.78
2019-02-23T07:37:36.524Z,98759.13
2019-02-23T07:40:09.512Z,98761.34
2019-02-23T07:42:48.010Z,98757.92
2019-02-23T07:46:00.643Z,98758.53
2019-02-23T07:48:32.717Z,98759.27
2019-02-23T07:51:04.120Z,98759.05
2019-02-23T07:53:35.388Z,98756.23
2019-02-23T07:56:15.597Z,98751.11
2019-02-23T07:58:53.167Z,98754.91
2019-02-23T08:01:32.978Z,98759.97
2019-02-23T08:04:04.941Z,98756.03
2019-02-23T08:06:36.859Z,98740.90
2019-02-23T08:09:09.610Z,98744.52
2019-02-23T08:12:07.223Z,98751.39
2019-02-23T08:14:38.729Z,98750.02
2019-02-23T08:17:09.639Z,98744.88
2019-02-23T08:19:40.916Z,98755.35
2019-02-23T08:22:12.203Z,98766.47
2019-02-23T08:25:43.717Z,98759.47
2019-02-23T08:28:14.118Z,98762.45
2019-02-23T08:31:01.712Z,98757.81
2019-02-23T08:33:32.704Z,98754.38
2019-02-23T08:36:03.819Z,98760.67
2019-02-23T08:38:35.037Z,98755.18
2019-02-23T08:41:05.732Z,98749.05
2019-02-23T08:43:37.081Z,98739.38
2019-02-23T08:46:08.434Z,98735.11
2019-02-23T08:48:39.459Z,98741.27
2019-02-23T08:51:10.822Z,98741.92
2019-02-23T08:53:44.021Z,98743.87
2019-02-23T08:56:15.420Z,98746.09
2019-02-23T08:58:46.069Z,98742.45
2019-02-23T09:01:17.497Z,98740.53
2019-02-23T09:03:49.800Z,98744.98
2019-02-23T09:06:21.781Z,98742.09
2019-02-23T09:08:53.168Z,98744.81
2019-02-23T09:11:24.564Z,98747.23
2019-02-23T09:14:05.593Z,98744.50
2019-02-23T09:16:36.961Z,98741.59
2019-02-23T09:19:08.567Z,98747.65
2019-02-23T09:21:38.895Z,98751.08
2019-02-23T09:24:11.300Z,98750.30
2019-02-23T09:26:42.790Z,98748.90
2019-02-23T09:29:14.353Z,98742.42
2019-02-23T09:31:45.956Z,98740.82
2019-02-23T09:34:18.104Z,98741.64
2019-02-23T09:36:49.720Z,98746.30
2019-02-23T09:39:21.467Z,98754.46
2019-02-23T09:41:53.009Z,98754.68
2019-02-23T09:44:24.073Z,98763.31
2019-02-23T09:46:55.034Z,98761.00
2019-02-23T09:49:26.784Z,98757.38
2019-02-23T09:51:58.151Z,98760.16
2019-02-23T09:54:31.063Z,98756.27
2019-02-23T09:57:03.085Z,98755.16
2019-02-23T09:59:35.179Z,98748.33
2019-02-23T10:02:07.645Z,98754.80
2019-02-23T10:04:40.297Z,98752.59
2019-02-23T10:07:11.590Z,98744.15
2019-02-23T10:09:42.996Z,98751.11
2019-02-23T10:12:14.322Z,98750.84
2019-02-23T10:14:45.378Z,98744.46
2019-02-23T10:17:16.728Z,98736.06
2019-02-23T10:19:47.769Z,98730.51
2019-02-23T10:22:19.847Z,98733.34
2019-02-23T10:24:50.956Z,98732.23
2019-02-23T10:27:21.984Z,98733.84
2019-02-23T10:29:53.369Z,98740.08
2019-02-23T10:32:24.024Z,98748.68
2019-02-23T10:34:55.917Z,98756.01
2019-02-23T10:37:27.335Z,98753.69
2019-02-23T10:39:58.756Z,98742.13
2019-02-23T10:42:36.758Z,98734.94
2019-02-23T10:45:09.030Z,98736.20
2019-02-23T10:47:40.461Z,98740.69
2019-02-23T10:50:11.839Z,98735.41
2019-02-23T10:52:43.166Z,98723.61
2019-02-23T10:55:13.536Z,98717.94
2019-02-23T10:57:45.149Z,98708.08
2019-02-23T11:00:20.772Z,98706.25
2019-02-23T11:03:05.092Z,98712.48
2019-02-23T11:05:36.829Z,98717.12
2019-02-23T11:08:07.571Z,98710.78
2019-02-23T11:10:38.590Z,98707.06
2019-02-23T11:13:10.333Z,98714.40
2019-02-23T11:15:52.865Z,98711.35
2019-02-23T11:18:23.657Z,98707.80
2019-02-23T11:20:55.318Z,98707.91
2019-02-23T11:23:26.323Z,98713.41
2019-02-23T11:25:59.163Z,98717.90
2019-02-23T11:28:30.224Z,98708.84
2019-02-23T11:31:01.053Z,98704.66
2019-02-23T11:33:41.823Z,98706.07
2019-02-23T11:36:13.273Z,98706.35
2019-02-23T11:38:53.323Z,98699.55
2019-02-23T11:42:05.332Z,98696.52
2019-02-23T11:44:38.460Z,98703.60
2019-02-23T11:47:10.154Z,98710.30
2019-02-23T11:49:41.523Z,98696.02
2019-02-23T11:52:12.282Z,98696.72
2019-02-23T11:54:44.253Z,98698.64
2019-02-23T11:57:40.492Z,98680.13
2019-02-23T12:00:11.713Z,98674.42
2019-02-23T12:02:51.999Z,98678.00
2019-02-23T12:05:16.740Z,98668.72
2019-02-23T12:07:48.718Z,98663.70
2019-02-23T12:10:19.338Z,98658.61
2019-02-23T12:12:51.343Z,98642.75
2019-02-23T12:16:26.468Z,98640.16
2019-02-23T12:18:57.156Z,98621.78
2019-02-23T12:21:28.428Z,98625.69
2019-02-23T12:24:06.041Z,98611.23
2019-02-23T12:26:33.638Z,98607.20
2019-02-23T12:29:04.616Z,98609.48
2019-02-23T12:31:35.680Z,98602.34
2019-02-23T12:34:06.365Z,98600.69
2019-02-23T12:36:38.014Z,98607.86
2019-02-23T12:39:09.091Z,98599.88
2019-02-23T12:41:40.805Z,98595.62
2019-02-23T12:44:12.514Z,98590.54
2019-02-23T12:46:44.308Z,98585.42
2019-02-23T12:49:15.699Z,98581.08
2019-02-23T12:51:47.167Z,98574.98
2019-02-23T12:54:18.220Z,98579.57
2019-02-23T12:56:49.826Z,98578.64
2019-02-23T12:59:21.189Z,98579.53
2019-02-23T13:01:52.974Z,98583.89
2019-02-23T13:08:12.463Z,98599.01
2019-02-23T13:10:43.363Z,98597.08
2019-02-23T13:13:54.365Z,98604.69
2019-02-23T13:16:34.840Z,98605.86
2019-02-23T13:19:44.382Z,98599.36
2019-02-23T13:23:02.495Z,98595.01
2019-02-23T13:26:16.463Z,98598.23
2019-02-23T13:29:22.979Z,98599.09
2019-02-23T13:32:33.835Z,98601.28
2019-02-23T13:36:15.150Z,98605.47
2019-02-23T13:39:55.510Z,98600.06
2019-02-23T13:43:21.953Z,98607.03
2019-02-23T13:46:55.010Z,98599.22
2019-02-23T13:50:25.151Z,98596.09
2019-02-23T13:53:35.502Z,98594.86
2019-02-23T13:57:23.553Z,98584.41
2019-02-23T14:00:37.904Z,98583.21
2019-02-23T14:03:58.997Z,98587.87
2019-02-23T14:07:43.765Z,98586.90
2019-02-23T14:11:02.752Z,98581.64
2019-02-23T14:18:10.825Z,98574.17
2019-02-23T14:21:37.788Z,98565.12
2019-02-23T14:25:26.601Z,98568.47
2019-02-23T14:29:15.467Z,98562.38
2019-02-23T14:33:02.694Z,98560.87
2019-02-23T14:36:05.219Z,98557.87
2019-02-23T14:40:03.196Z,98567.14
2019-02-23T14:43:37.350Z,98569.00
2019-02-23T14:46:46.711Z,98567.47
2019-02-23T14:49:53.390Z,98569.31
2019-02-23T14:52:59.108Z,98574.83
2019-02-23T14:56:03.673Z,98563.34
2019-02-23T14:59:20.705Z,98561.13
2019-02-23T15:02:51.529Z,98553.52
2019-02-23T15:06:31.181Z,98550.77
2019-02-23T15:09:54.635Z,98546.91
2019-02-23T15:13:31.948Z,98541.72
2019-02-23T15:17:15.633Z,98537.69
2019-02-23T15:20:46.265Z,98525.68
2019-02-23T15:24:00.235Z,98511.84
2019-02-23T15:28:01.330Z,98518.14
2019-02-23T15:31:40.761Z,98510.24
2019-02-23T15:35:26.976Z,98507.83
2019-02-23T15:38:52.895Z,98521.45
2019-02-23T15:42:22.127Z,98523.85
2019-02-23T15:45:52.040Z,98529.56
2019-02-23T15:49:33.871Z,98523.04
2019-02-23T15:52:08.556Z,98526.53
2019-02-23T15:54:57.727Z,98533.56
2019-02-23T15:57:33.292Z,98527.25
2019-02-23T16:00:05.574Z,98525.40
2019-02-23T16:02:37.248Z,98522.39
2019-02-23T16:05:08.086Z,98522.07
2019-02-23T16:07:45.373Z,98537.77
2019-02-23T16:10:27.785Z,98539.48
2019-02-23T16:13:00.355Z,98536.52
2019-02-23T16:15:32.990Z,98542.14
2019-02-23T16:18:15.595Z,98549.73
2019-02-23T16:20:47.159Z,98547.36
2019-02-23T16:23:17.792Z,98545.13
2019-02-23T16:25:49.221Z,98551.70
2019-02-23T16:28:22.512Z,98551.87
2019-02-23T16:30:54.348Z,98552.05
2019-02-23T16:33:25.700Z,98559.87
2019-02-23T16:35:57.396Z,98563.53
2019-02-23T16:38:44.486Z,98566.58
2019-02-23T16:41:15.831Z,98572.26
2019-02-23T16:43:47.521Z,98589.41
2019-02-23T16:46:19.744Z,98591.50
2019-02-23T16:48:51.093Z,98592.75
2019-02-23T16:51:23.114Z,98591.48
2019-02-23T16:53:53.565Z,98603.02
2019-02-23T16:56:24.949Z,98602.46
2019-02-23T16:58:56.620Z,98609.52
2019-02-23T17:01:28.083Z,98612.17
2019-02-23T17:03:59.390Z,98623.34
2019-02-23T17:06:33.446Z,98623.44
2019-02-23T17:09:04.969Z,98627.72
2019-02-23T17:11:41.578Z,98633.67
2019-02-23T17:14:31.656Z,98642.04
2019-02-23T17:17:02.901Z,98646.05
2019-02-23T17:19:34.818Z,98641.50
2019-02-23T17:22:16.154Z,98644.52
2019-02-23T17:25:09.184Z,98641.02
2019-02-23T17:27:39.517Z,98643.01
2019-02-23T17:30:14.816Z,98645.28
2019-02-23T17:32:46.285Z,98644.89
2019-02-23T17:35:17.791Z,98645.23
2019-02-23T17:37:52.354Z,98649.52
2019-02-23T17:40:26.355Z,98645.55
2019-02-23T17:42:57.401Z,98645.29
2019-02-23T17:45:40.115Z,98650.72
2019-02-23T17:48:23.615Z,98649.98
2019-02-23T17:50:55.201Z,98662.09
2019-02-23T17:53:27.700Z,98663.27
2019-02-23T17:55:58.019Z,98664.18
2019-02-23T17:58:29.334Z,98672.56
2019-02-23T18:01:02.125Z,98680.78
2019-02-23T18:03:33.362Z,98679.59
2019-02-23T18:06:05.497Z,98677.73
2019-02-23T18:09:06.272Z,98678.55
2019-02-23T18:11:36.688Z,98690.63
2019-02-23T18:14:08.894Z,98693.75
2019-02-23T18:16:51.957Z,98689.09
2019-02-23T18:19:23.359Z,98693.27
2019-02-23T18:21:55.232Z,98693.56
2019-02-23T18:24:42.126Z,98698.03
2019-02-23T18:27:46.214Z,98699.34
2019-02-23T18:30:24.199Z,98695.77
2019-02-23T18:33:03.419Z,98704.03
2019-02-23T18:35:35.463Z,98709.47
2019-02-23T18:38:07.745Z,98714.41
2019-02-23T18:40:39.920Z,98716.38
2019-02-23T18:43:11.538Z,98716.69
2019-02-23T18:45:47.657Z,98716.43
2019-02-23T18:48:25.881Z,98714.22
2019-02-23T18:51:00.760Z,98718.41
2019-02-23T18:53:31.863Z,98716.83
2019-02-23T18:56:02.252Z,98722.33
2019-02-23T18:58:33.543Z,98723.00
2019-02-23T19:01:05.210Z,98721.25
2019-02-23T19:03:36.522Z,98723.95
2019-02-23T19:06:07.800Z,98727.23
2019-02-23T19:08:38.789Z,98733.73
2019-02-23T19:11:10.429Z,98725.69
2019-02-23T19:13:41.547Z,98722.16
2019-02-23T19:16:13.111Z,98723.59
2019-02-23T19:18:44.334Z,98723.98
2019-02-23T19:21:15.877Z,98722.70
2019-02-23T19:23:47.873Z,98720.87
2019-02-23T19:26:18.447Z,98720.88
2019-02-23T19:28:49.414Z,98716.62
2019-02-23T19:31:20.561Z,98715.39
2019-02-23T19:33:52.445Z,98715.73
2019-02-23T19:36:24.073Z,98714.47
2019-02-23T19:38:56.315Z,98721.63
2019-02-23T19:41:29.252Z,98717.47
2019-02-23T19:44:01.079Z,98716.97
2019-02-23T19:46:32.517Z,98723.66
2019-02-23T19:49:03.882Z,98724.77
2019-02-23T19:51:34.627Z,98726.98
2019-02-23T19:54:06.210Z,98727.84
2019-02-23T19:56:46.619Z,98732.45
2019-02-23T19:59:11.628Z,98740.77
2019-02-23T20:01:43.588Z,98744.66
2019-02-23T20:04:15.576Z,98743.98
2019-02-23T20:06:46.995Z,98740.90
2019-02-23T20:09:18.640Z,98731.86
2019-02-23T20:11:49.836Z,98724.57
2019-02-23T20:14:21.260Z,98726.38
2019-02-23T20:16:52.305Z,98727.72
2019-02-23T20:19:24.010Z,98729.36
2019-02-23T20:21:55.628Z,98736.53
2019-02-23T20:24:26.697Z,98741.09
2019-02-23T20:26:58.076Z,98738.85
2019-02-23T20:29:29.814Z,98734.15
2019-02-23T20:32:01.561Z,98736.09
2019-02-23T20:34:32.191Z,98745.84
2019-02-23T20:37:03.884Z,98742.14
2019-02-23T20:39:35.197Z,98745.98
2019-02-23T20:42:06.679Z,98742.30
2019-02-23T20:44:37.861Z,98745.39
2019-02-23T20:47:09.606Z,98747.49
2019-02-23T20:49:40.961Z,98746.17
2019-02-23T20:52:12.691Z,98742.49
2019-02-23T20:54:50.423Z,98747.67
2019-02-23T20:57:21.944Z,98748.50
2019-02-23T20:59:53.709Z,98751.89
2019-02-23T21:02:25.107Z,98747.06
2019-02-23T21:04:56.286Z,98752.23
2019-02-23T21:07:27.632Z,98750.94
2019-02-23T21:09:58.305Z,98744.47
2019-02-23T21:12:29.437Z,98740.92
2019-02-23T21:15:01.819Z,98744.31
2019-02-23T21:17:57.672Z,98746.23
2019-02-23T21:20:29.214Z,98734.61
2019-02-23T21:22:59.928Z,98742.69
2019-02-23T21:25:31.892Z,98745.93
2019-02-23T21:28:05.526Z,98742.52
2019-02-23T21:30:45.405Z,98739.91
2019-02-23T21:33:16.150Z,98736.37
2019-02-23T21:35:49.608Z,98740.86
2019-02-23T21:38:22.036Z,98735.87
2019-02-23T21:41:05.196Z,98731.94
2019-02-23T21:43:48.514Z,98735.12
2019-02-23T21:46:19.682Z,98735.48
2019-02-23T21:48:51.418Z,98742.73
2019-02-23T21:51:23.540Z,98733.00
2019-02-23T21:54:00.686Z,98730.32
2019-02-23T21:56:33.272Z,98724.71
2019-02-23T21:59:04.559Z,98725.03
2019-02-23T22:01:35.712Z,98727.28
2019-02-23T22:04:38.541Z,98719.38
2019-02-23T22:07:11.834Z,98720.04
2019-02-23T22:09:54.662Z,98722.77
2019-02-23T22:12:29.121Z,98731.13
2019-02-23T22:15:02.049Z,98733.22
2019-02-23T22:17:35.039Z,98730.11
2019-02-23T22:20:06.240Z,98731.68
2019-02-23T22:22:38.619Z,98730.73
2019-02-23T22:25:10.507Z,98722.84
2019-02-23T22:27:44.463Z,98726.69
2019-02-23T22:30:26.359Z,98725.04
2019-02-23T22:33:03.597Z,98726.32
2019-02-23T22:35:35.426Z,98725.77
2019-02-23T22:38:07.708Z,98724.89
2019-02-23T22:40:39.549Z,98723.27
2019-02-23T22:43:14.641Z,98727.39
2019-02-23T22:45:46.680Z,98731.12
2019-02-23T22:48:35.913Z,98730.36
2019-02-23T22:51:15.218Z,98732.64
2019-02-23T22:54:01.920Z,98731.08
2019-02-23T22:56:33.685Z,98737.20
2019-02-23T22:59:04.737Z,98741.52
2019-02-23T23:01:50.893Z,98743.16
2019-02-23T23:04:22.130Z,98738.41
2019-02-23T23:06:53.847Z,98736.77
2019-02-23T23:09:25.733Z,98736.08
2019-02-23T23:11:58.402Z,98730.23
2019-02-23T23:14:30.022Z,98727.02
2019-02-23T23:17:01.206Z,98734.86
2019-02-23T23:19:37.486Z,98735.50
2019-02-23T23:22:08.784Z,98732.66
2019-02-23T23:24:40.422Z,98729.44
2019-02-23T23:27:12.014Z,98732.45
2019-02-23T23:29:44.011Z,98740.70
2019-02-23T23:32:14.922Z,98740.66
2019-02-23T23:34:47.180Z,98739.73
2019-02-23T23:37:21.548Z,98733.95
2019-02-23T23:39:52.865Z,98737.45
2019-02-23T23:42:24.182Z,98735.52
2019-02-23T23:44:55.639Z,98731.17
2019-02-23T23:47:31.336Z,98732.42
2019-02-23T23:50:05.252Z,98736.45
2019-02-23T23:52:36.885Z,98736.52
2019-02-23T23:55:09.132Z,98738.85
2019-02-23T23:57:40.469Z,98731.55
